Time;durP1;ratioP1;P1;durP2;ratioP2;P2;SDS_P1;SDS_P2;PMS_P1;PMS_P2;Temp;Humidity;BMP_temperature;BMP_pressure;BME280_temperature;BME280_humidity;BME280_pressure;Samples;Min_cycle;Max_cycle;Signal;HPM_P1;HPM_P2
2021/03/29 00:02:22;;;;;;;3.90;1.67;;;10.80;99.90;;;;;;5011620;28;20214;-76
2021/03/29 00:04:49;;;;;;;4.80;1.70;;;10.80;99.90;;;;;;5011492;28;20249;-76
2021/03/29 00:07:18;;;;;;;5.20;1.67;;;10.80;99.90;;;;;;5011047;28;20680;-76
2021/03/29 00:09:45;;;;;;;4.20;1.73;;;10.80;99.90;;;;;;5011512;28;20202;-74
2021/03/29 00:12:13;;;;;;;2.17;1.73;;;10.80;99.90;;;;;;5011208;28;20260;-74
2021/03/29 00:14:41;;;;;;;4.90;1.40;;;10.80;99.90;;;;;;5011302;28;20265;-75
2021/03/29 00:17:08;;;;;;;1.53;1.43;;;10.80;99.90;;;;;;5011176;28;20252;-75
2021/03/29 00:19:35;;;;;;;2.20;1.43;;;10.70;99.90;;;;;;5010743;28;20245;-75
2021/03/29 00:22:04;;;;;;;3.23;1.50;;;10.70;99.90;;;;;;5011070;28;20275;-74
2021/03/29 00:24:31;;;;;;;4.33;1.77;;;10.70;99.90;;;;;;5010673;28;20209;-76
2021/03/29 00:26:58;;;;;;;4.30;1.90;;;10.70;99.90;;;;;;5010893;28;20288;-77
2021/03/29 00:29:24;;;;;;;3.80;1.90;;;10.70;99.90;;;;;;5010518;28;20680;-76
2021/03/29 00:31:51;;;;;;;3.83;1.97;;;10.70;99.90;;;;;;5010887;28;20264;-75
2021/03/29 00:34:17;;;;;;;2.60;1.67;;;10.70;99.90;;;;;;5009533;28;20234;-76
2021/03/29 00:36:45;;;;;;;4.10;1.50;;;10.70;99.90;;;;;;5010660;28;20632;-76
2021/03/29 00:39:13;;;;;;;2.27;1.33;;;10.70;99.90;;;;;;5010648;28;20251;-76
2021/03/29 00:41:40;;;;;;;2.67;1.60;;;10.70;99.90;;;;;;5010549;28;20480;-76
2021/03/29 00:44:07;;;;;;;5.37;2.07;;;10.70;99.90;;;;;;5010735;28;20236;-76
2021/03/29 00:46:34;;;;;;;2.43;1.63;;;10.70;99.90;;;;;;5010662;28;20252;-77
2021/03/29 00:49:01;;;;;;;1.70;1.40;;;10.70;99.90;;;;;;5010134;28;20253;-76
2021/03/29 00:51:30;;;;;;;4.93;2.27;;;10.70;99.90;;;;;;5010482;28;20213;-76
2021/03/29 00:53:59;;;;;;;2.00;1.50;;;10.70;99.90;;;;;;5010142;28;20895;-76
2021/03/29 00:56:27;;;;;;;3.43;1.50;;;10.70;99.90;;;;;;5010149;28;20672;-76
2021/03/29 00:58:54;;;;;;;3.63;1.70;;;10.70;99.90;;;;;;5010573;28;20233;-76
2021/03/29 01:01:24;;;;;;;5.30;1.67;;;10.70;99.90;;;;;;5010210;28;20206;-76
2021/03/29 01:03:52;;;;;;;3.93;1.50;;;10.70;99.90;;;;;;5010208;28;20251;-76
2021/03/29 01:06:21;;;;;;;2.77;1.90;;;10.70;99.90;;;;;;5010088;28;20807;-76
2021/03/29 01:08:49;;;;;;;3.43;1.77;;;10.80;99.90;;;;;;5010241;28;20225;-76
2021/03/29 01:11:17;;;;;;;1.73;1.37;;;10.80;99.90;;;;;;5010209;28;20240;-76
2021/03/29 01:13:47;;;;;;;4.50;1.70;;;10.80;99.90;;;;;;5009981;28;20257;-76
2021/03/29 01:16:17;;;;;;;3.53;1.70;;;10.80;99.90;;;;;;5009954;28;20214;-76
2021/03/29 01:18:46;;;;;;;4.23;1.70;;;10.80;99.90;;;;;;5010262;28;20295;-75
2021/03/29 01:21:28;;;;;;;3.00;1.43;;;10.80;99.90;;;;;;5010037;28;20224;-76
2021/03/29 01:24:01;;;;;;;4.97;1.70;;;10.80;99.90;;;;;;5010136;28;20202;-77
2021/03/29 01:26:33;;;;;;;4.03;1.60;;;10.80;99.90;;;;;;5009663;28;20229;-78
2021/03/29 01:29:00;;;;;;;2.93;1.40;;;10.80;99.90;;;;;;5009995;28;20202;-77
2021/03/29 01:31:27;;;;;;;3.77;1.80;;;10.80;99.90;;;;;;5009996;28;20263;-77
2021/03/29 01:33:54;;;;;;;3.10;1.70;;;10.70;99.90;;;;;;5010170;28;20316;-77
2021/03/29 01:36:21;;;;;;;2.80;1.67;;;10.80;99.90;;;;;;5009786;28;20351;-77
2021/03/29 01:38:49;;;;;;;3.80;1.73;;;10.80;99.90;;;;;;5009628;28;20268;-77
2021/03/29 01:41:17;;;;;;;3.13;1.47;;;10.80;99.90;;;;;;5009695;28;20210;-77
2021/03/29 01:43:45;;;;;;;4.13;1.63;;;10.70;99.90;;;;;;5009256;28;20221;-77
2021/03/29 01:46:12;;;;;;;2.43;1.63;;;10.70;99.90;;;;;;5009502;28;20245;-76
2021/03/29 01:48:39;;;;;;;2.87;1.70;;;10.70;99.90;;;;;;5009588;28;20248;-76
2021/03/29 01:51:06;;;;;;;4.17;1.70;;;10.70;99.90;;;;;;5009668;28;20205;-77
2021/03/29 01:53:33;;;;;;;3.53;1.60;;;10.70;99.90;;;;;;5009227;28;20213;-76
2021/03/29 01:55:59;;;;;;;3.27;1.50;;;10.70;99.90;;;;;;5009211;28;20676;-77
2021/03/29 01:58:26;;;;;;;3.60;1.33;;;10.70;99.90;;;;;;5009461;28;20216;-77
2021/03/29 02:00:56;;;;;;;5.17;1.80;;;10.70;99.90;;;;;;5009403;28;20233;-77
2021/03/29 02:03:24;;;;;;;5.30;1.63;;;10.70;99.90;;;;;;5009253;28;20190;-77
2021/03/29 02:05:51;;;;;;;5.90;1.83;;;10.70;99.90;;;;;;5009463;28;20255;-76
2021/03/29 02:08:18;;;;;;;1.90;1.57;;;10.80;99.90;;;;;;5009145;28;20209;-76
2021/03/29 02:10:46;;;;;;;2.93;1.67;;;10.80;99.90;;;;;;5009301;28;20209;-77
2021/03/29 02:13:14;;;;;;;3.00;1.60;;;10.80;99.90;;;;;;5009279;28;20244;-76
2021/03/29 02:15:43;;;;;;;4.70;1.70;;;10.70;99.90;;;;;;5009061;28;20276;-76
2021/03/29 02:18:12;;;;;;;1.90;1.57;;;10.70;99.90;;;;;;5009157;28;20217;-76
2021/03/29 02:20:39;;;;;;;4.37;1.67;;;10.70;99.90;;;;;;5008355;28;20727;-77
2021/03/29 02:23:07;;;;;;;6.43;2.00;;;10.70;99.90;;;;;;5009166;28;20202;-76
2021/03/29 02:25:34;;;;;;;6.57;2.13;;;10.70;99.90;;;;;;5008538;28;20206;-77
2021/03/29 02:28:03;;;;;;;3.00;1.70;;;10.70;99.90;;;;;;5008992;28;20665;-77
2021/03/29 02:30:33;;;;;;;4.73;1.97;;;10.70;99.90;;;;;;5008802;28;20216;-76
2021/03/29 02:33:01;;;;;;;2.83;1.50;;;10.70;99.90;;;;;;5008993;28;20201;-76
2021/03/29 02:35:28;;;;;;;3.83;1.50;;;10.70;99.90;;;;;;5008781;28;20268;-76
2021/03/29 02:37:57;;;;;;;5.60;1.97;;;10.70;99.90;;;;;;5009023;28;20220;-76
2021/03/29 02:40:25;;;;;;;2.40;1.50;;;10.70;99.90;;;;;;5008803;28;20263;-75
2021/03/29 02:42:54;;;;;;;6.47;1.77;;;10.60;99.90;;;;;;5008855;28;20241;-77
2021/03/29 02:45:23;;;;;;;3.57;1.83;;;10.60;99.90;;;;;;5008752;28;20300;-77
2021/03/29 02:47:50;;;;;;;1.60;1.50;;;10.60;99.90;;;;;;5008406;28;20233;-74
2021/03/29 02:50:24;;;;;;;2.93;1.60;;;10.60;99.90;;;;;;5008645;28;20790;-76
2021/03/29 02:52:53;;;;;;;2.47;1.70;;;10.60;99.90;;;;;;5008773;28;20231;-74
2021/03/29 02:55:20;;;;;;;6.20;2.53;;;10.50;99.90;;;;;;5008435;28;20237;-74
2021/03/29 02:57:48;;;;;;;2.87;1.77;;;10.50;99.90;;;;;;5011421;28;20738;-74
2021/03/29 03:00:18;;;;;;;5.63;1.57;;;10.50;99.90;;;;;;5012613;28;20243;-74
2021/03/29 03:02:46;;;;;;;2.90;1.80;;;10.50;99.90;;;;;;5012157;28;20209;-76
2021/03/29 03:05:14;;;;;;;3.50;1.63;;;10.40;99.90;;;;;;5006428;28;20271;-74
2021/03/29 03:07:41;;;;;;;4.67;2.30;;;10.40;99.90;;;;;;5001566;28;20209;-75
2021/03/29 03:10:10;;;;;;;6.10;1.90;;;10.40;99.90;;;;;;5009470;28;20220;-76
2021/03/29 03:12:39;;;;;;;4.00;1.80;;;10.40;99.90;;;;;;5011909;28;20253;-76
2021/03/29 03:15:08;;;;;;;4.00;1.77;;;10.40;99.90;;;;;;5012036;28;20237;-76
2021/03/29 03:17:34;;;;;;;4.50;1.77;;;10.40;99.90;;;;;;5005198;28;20209;-75
2021/03/29 03:20:00;;;;;;;4.00;1.90;;;10.40;99.90;;;;;;5008204;28;20772;-75
2021/03/29 03:22:27;;;;;;;2.47;1.77;;;10.40;99.90;;;;;;5008427;28;20244;-76
2021/03/29 03:24:53;;;;;;;3.93;1.67;;;10.40;99.90;;;;;;5008421;28;20205;-75
2021/03/29 03:27:20;;;;;;;5.43;1.47;;;10.40;99.90;;;;;;5008559;28;20263;-76
2021/03/29 03:29:46;;;;;;;3.83;1.93;;;10.40;99.90;;;;;;5008501;28;20249;-76
2021/03/29 03:32:13;;;;;;;3.37;1.83;;;10.30;99.90;;;;;;5008449;28;20214;-72
2021/03/29 03:34:39;;;;;;;4.97;1.80;;;10.40;99.90;;;;;;5008106;28;20269;-76
2021/03/29 03:37:09;;;;;;;7.33;2.10;;;10.30;99.90;;;;;;5008351;28;20285;-76
2021/03/29 03:39:36;;;;;;;4.70;2.07;;;10.30;99.90;;;;;;5008060;28;20245;-77
2021/03/29 03:42:03;;;;;;;4.30;2.07;;;10.30;99.90;;;;;;5006769;28;20747;-75
2021/03/29 03:44:31;;;;;;;3.47;1.97;;;10.40;99.90;;;;;;5007419;28;20680;-76
2021/03/29 03:46:57;;;;;;;3.30;1.97;;;10.40;99.90;;;;;;5007580;28;20252;-77
2021/03/29 03:49:25;;;;;;;4.27;2.03;;;10.40;99.90;;;;;;5007773;28;20213;-77
2021/03/29 03:51:52;;;;;;;4.03;2.00;;;10.40;99.90;;;;;;5008024;28;20737;-77
2021/03/29 03:54:19;;;;;;;5.07;1.80;;;10.40;99.90;;;;;;5007888;28;20265;-76
2021/03/29 03:56:47;;;;;;;4.77;2.10;;;10.40;99.90;;;;;;5007569;28;20685;-76
2021/03/29 03:59:13;;;;;;;5.63;2.00;;;10.40;99.90;;;;;;5003756;28;20202;-76
2021/03/29 04:01:51;;;;;;;5.20;2.00;;;10.30;99.90;;;;;;5001735;28;20576;-76
2021/03/29 04:04:17;;;;;;;3.03;1.87;;;10.30;99.90;;;;;;5007048;28;20208;-76
2021/03/29 04:06:43;;;;;;;3.30;1.87;;;10.30;99.90;;;;;;5010450;28;20213;-76
2021/03/29 04:09:10;;;;;;;3.90;2.10;;;10.30;99.90;;;;;;5010693;28;20213;-76
2021/03/29 04:11:37;;;;;;;5.97;2.20;;;10.30;99.90;;;;;;5018135;28;20217;-78
2021/03/29 04:14:03;;;;;;;3.13;1.60;;;10.20;99.90;;;;;;5015942;28;20264;-77
2021/03/29 04:16:29;;;;;;;3.17;1.90;;;10.30;99.90;;;;;;5026173;28;20212;-76
2021/03/29 04:18:56;;;;;;;6.67;2.43;;;10.30;99.90;;;;;;5030651;28;20584;-78
2021/03/29 04:21:22;;;;;;;5.13;2.30;;;10.20;99.90;;;;;;5030769;28;20208;-78
2021/03/29 04:23:48;;;;;;;7.13;1.80;;;10.20;99.90;;;;;;5030700;28;20239;-78
2021/03/29 04:26:14;;;;;;;4.83;1.97;;;10.20;99.90;;;;;;5022027;28;20233;-78
2021/03/29 04:28:40;;;;;;;3.93;2.00;;;10.20;99.90;;;;;;5024405;28;20216;-77
2021/03/29 04:31:06;;;;;;;3.07;2.10;;;10.30;99.90;;;;;;5018914;28;20212;-77
2021/03/29 04:33:33;;;;;;;5.83;2.00;;;10.30;99.90;;;;;;5018798;28;20338;-78
2021/03/29 04:35:59;;;;;;;5.10;2.10;;;10.30;99.90;;;;;;5015552;28;20247;-78
2021/03/29 04:38:26;;;;;;;4.43;2.23;;;10.30;99.90;;;;;;5018201;28;20213;-78
2021/03/29 04:40:52;;;;;;;5.23;2.23;;;10.30;99.90;;;;;;5016219;28;20202;-77
2021/03/29 04:43:18;;;;;;;4.53;1.93;;;10.30;99.90;;;;;;5024410;28;20480;-77
2021/03/29 04:45:44;;;;;;;5.57;2.30;;;10.30;99.90;;;;;;5021542;28;20208;-77
2021/03/29 04:48:10;;;;;;;2.83;1.90;;;10.30;99.90;;;;;;5016091;28;20315;-78
2021/03/29 04:50:37;;;;;;;2.10;1.90;;;10.30;99.90;;;;;;5017329;28;20629;-77
2021/03/29 04:53:04;;;;;;;5.77;2.47;;;10.20;99.90;;;;;;5017932;28;20204;-77
2021/03/29 04:55:30;;;;;;;5.97;2.50;;;10.20;99.90;;;;;;5017354;28;20267;-78
2021/03/29 04:57:56;;;;;;;5.67;2.13;;;10.20;99.90;;;;;;5020034;28;20287;-77
2021/03/29 05:00:23;;;;;;;3.77;2.20;;;10.20;99.90;;;;;;5018573;28;20204;-78
2021/03/29 05:02:49;;;;;;;5.87;2.10;;;10.20;99.90;;;;;;5017156;28;20263;-78
2021/03/29 05:05:15;;;;;;;4.10;2.00;;;10.20;99.90;;;;;;5021205;28;20256;-77
2021/03/29 05:07:43;;;;;;;2.17;1.80;;;10.20;99.90;;;;;;5020664;28;20260;-78
2021/03/29 05:10:12;;;;;;;4.63;2.00;;;10.20;99.90;;;;;;5010836;28;20229;-77
2021/03/29 05:12:38;;;;;;;3.70;2.00;;;10.20;99.90;;;;;;5008261;28;20201;-78
2021/03/29 05:15:06;;;;;;;4.47;2.20;;;10.20;99.90;;;;;;5019267;28;20232;-78
2021/03/29 05:17:32;;;;;;;5.83;2.13;;;10.20;99.90;;;;;;5014624;28;20699;-77
2021/03/29 05:19:59;;;;;;;4.73;2.03;;;10.20;99.90;;;;;;5018168;28;20331;-77
2021/03/29 05:22:25;;;;;;;4.53;2.27;;;10.20;99.90;;;;;;5019463;28;20287;-78
2021/03/29 05:24:51;;;;;;;3.13;2.10;;;10.20;99.90;;;;;;5017622;28;20228;-77
2021/03/29 05:27:18;;;;;;;6.73;2.40;;;10.20;99.90;;;;;;5018895;28;20205;-78
2021/03/29 05:29:46;;;;;;;3.57;2.30;;;10.20;99.90;;;;;;5016852;28;20233;-78
2021/03/29 05:32:14;;;;;;;5.63;2.30;;;10.20;99.90;;;;;;5020124;28;20747;-76
2021/03/29 05:34:41;;;;;;;3.57;2.20;;;10.20;99.90;;;;;;5015517;28;20228;-78
2021/03/29 05:37:07;;;;;;;2.00;1.80;;;10.20;99.90;;;;;;5019422;28;20773;-77
2021/03/29 05:39:34;;;;;;;4.23;2.23;;;10.20;99.90;;;;;;5016726;28;20201;-78
2021/03/29 05:42:00;;;;;;;4.80;2.10;;;10.20;99.90;;;;;;5015860;28;20213;-79
2021/03/29 05:44:27;;;;;;;4.77;2.37;;;10.20;99.90;;;;;;5017502;28;20290;-77
2021/03/29 05:46:53;;;;;;;5.90;2.13;;;10.20;99.90;;;;;;5011230;28;20196;-70
2021/03/29 05:49:20;;;;;;;3.37;2.07;;;10.20;99.90;;;;;;5015404;28;20248;-73
2021/03/29 05:51:46;;;;;;;5.93;2.53;;;10.30;99.90;;;;;;5020709;28;20198;-75
2021/03/29 05:54:13;;;;;;;4.20;2.60;;;10.30;99.90;;;;;;5016127;28;20587;-77
2021/03/29 05:56:40;;;;;;;5.03;2.47;;;10.30;99.90;;;;;;5011060;28;20664;-77
2021/03/29 05:59:10;;;;;;;5.77;2.03;;;10.30;99.90;;;;;;5007157;28;20731;-77
2021/03/29 06:01:42;;;;;;;7.17;2.20;;;10.30;99.90;;;;;;5008954;28;20213;-78
2021/03/29 06:04:08;;;;;;;5.40;2.40;;;10.30;99.90;;;;;;5009294;28;20217;-78
2021/03/29 06:06:34;;;;;;;6.13;2.60;;;10.30;99.90;;;;;;5009137;28;20580;-85
2021/03/29 06:09:01;;;;;;;4.40;2.30;;;10.40;99.90;;;;;;5009778;28;20221;-81
2021/03/29 06:11:29;;;;;;;4.90;2.73;;;10.30;99.90;;;;;;5009348;28;20214;-82
2021/03/29 06:14:14;;;;;;;3.80;2.30;;;10.30;99.90;;;;;;5009131;28;21040;-81
2021/03/29 06:17:02;;;;;;;2.90;2.40;;;10.40;99.90;;;;;;5011240;28;20197;-82
2021/03/29 06:19:40;;;;;;;4.80;2.23;;;10.30;99.90;;;;;;5019391;28;20335;-82
2021/03/29 06:22:11;;;;;;;6.30;2.40;;;10.30;99.90;;;;;;5017154;28;20194;-82
2021/03/29 06:25:02;;;;;;;6.43;2.60;;;10.30;99.90;;;;;;5018654;28;20563;-81
2021/03/29 06:27:30;;;;;;;9.57;2.83;;;10.40;99.90;;;;;;5014264;28;20668;-81
2021/03/29 06:30:19;;;;;;;5.23;2.57;;;10.40;99.90;;;;;;5012695;28;20223;-81
2021/03/29 06:33:04;;;;;;;3.67;2.10;;;10.40;99.90;;;;;;5020872;28;20204;-83
2021/03/29 06:35:34;;;;;;;5.77;2.30;;;10.40;99.90;;;;;;5007677;28;20221;-82
2021/03/29 06:38:09;;;;;;;3.27;2.27;;;10.50;99.90;;;;;;5017010;28;20870;-84
2021/03/29 06:40:37;;;;;;;6.50;2.40;;;10.50;99.90;;;;;;5008395;28;20233;-82
2021/03/29 06:43:16;;;;;;;5.40;2.50;;;10.50;99.90;;;;;;5020266;28;20205;-82
2021/03/29 06:45:42;;;;;;;6.47;2.70;;;10.50;99.90;;;;;;5015588;28;20196;-82
2021/03/29 06:48:18;;;;;;;3.87;2.27;;;10.60;99.90;;;;;;5017308;28;20225;-82
2021/03/29 06:50:44;;;;;;;7.20;2.67;;;10.60;99.90;;;;;;5016938;28;20679;-84
2021/03/29 06:53:10;;;;;;;6.43;2.20;;;10.60;99.90;;;;;;5017246;28;20201;-84
2021/03/29 06:55:37;;;;;;;5.93;2.63;;;10.60;99.90;;;;;;5010114;28;20232;-88
2021/03/29 06:58:05;;;;;;;4.90;2.20;;;10.70;99.90;;;;;;5018913;28;20236;-83
2021/03/29 07:00:33;;;;;;;3.17;2.57;;;10.70;99.90;;;;;;5016725;28;20202;-83
2021/03/29 07:03:01;;;;;;;4.33;2.13;;;10.70;99.90;;;;;;5009089;28;20291;-83
2021/03/29 07:05:28;;;;;;;4.70;2.33;;;10.80;99.90;;;;;;5009044;28;20209;-83
2021/03/29 07:07:55;;;;;;;4.23;1.97;;;10.90;99.90;;;;;;5009618;28;20205;-83
2021/03/29 07:10:21;;;;;;;2.53;2.27;;;11.00;99.90;;;;;;5009407;28;20241;-83
2021/03/29 07:12:47;;;;;;;7.50;2.40;;;11.10;99.90;;;;;;5009314;28;20448;-83
2021/03/29 07:15:14;;;;;;;5.17;2.23;;;11.30;99.90;;;;;;5017076;28;20255;-83
2021/03/29 07:17:43;;;;;;;4.90;2.43;;;11.40;99.90;;;;;;5014390;28;20205;-83
2021/03/29 07:20:11;;;;;;;9.23;2.43;;;11.50;99.90;;;;;;5027848;28;20237;-83
2021/03/29 07:22:39;;;;;;;4.33;2.37;;;11.50;99.90;;;;;;5014778;28;20205;-83
2021/03/29 07:25:08;;;;;;;6.60;2.23;;;11.60;99.90;;;;;;5014260;28;20251;-82
2021/03/29 07:27:38;;;;;;;5.43;2.40;;;11.70;99.90;;;;;;5016408;28;20645;-84
2021/03/29 07:30:06;;;;;;;5.57;2.20;;;11.70;99.90;;;;;;5011639;28;20189;-83
2021/03/29 07:32:33;;;;;;;6.70;2.17;;;11.80;99.90;;;;;;5022632;28;20194;-83
2021/03/29 07:35:00;;;;;;;4.77;2.23;;;11.90;99.90;;;;;;5022767;28;20221;-83
2021/03/29 07:37:28;;;;;;;5.90;2.60;;;12.00;99.90;;;;;;5022927;28;20204;-83
2021/03/29 07:39:56;;;;;;;4.73;2.37;;;12.00;99.90;;;;;;5014088;28;20197;-83
2021/03/29 07:42:37;;;;;;;5.67;2.27;;;12.10;99.90;;;;;;5018811;28;20229;-83
2021/03/29 07:45:07;;;;;;;4.50;2.23;;;12.10;99.90;;;;;;5026515;28;20193;-83
2021/03/29 07:47:41;;;;;;;5.73;2.63;;;12.10;99.90;;;;;;5023426;28;20283;-83
2021/03/29 07:50:09;;;;;;;4.63;2.20;;;12.20;99.90;;;;;;5023702;28;20204;-83
2021/03/29 07:52:39;;;;;;;5.83;2.50;;;12.20;99.90;;;;;;5022889;28;20219;-83
2021/03/29 07:55:20;;;;;;;7.93;2.10;;;12.30;99.90;;;;;;5016664;28;20225;-83
2021/03/29 07:58:06;;;;;;;3.23;2.20;;;12.30;99.90;;;;;;5013017;28;20202;-80
2021/03/29 08:00:58;;;;;;;5.10;2.50;;;12.40;99.90;;;;;;5011866;28;20909;-85
2021/03/29 08:03:53;;;;;;;6.37;2.33;;;12.50;99.90;;;;;;5014543;28;20198;-82
2021/03/29 08:06:40;;;;;;;4.80;2.27;;;12.60;99.90;;;;;;5021170;28;20247;-82
2021/03/29 08:09:13;;;;;;;4.30;2.27;;;12.70;99.90;;;;;;5015688;28;20208;-83
2021/03/29 08:12:02;;;;;;;5.33;2.33;;;12.70;99.90;;;;;;5013010;28;20204;-83
2021/03/29 08:14:34;;;;;;;6.23;2.13;;;12.70;99.90;;;;;;5017204;28;20635;-81
2021/03/29 08:17:38;;;;;;;6.63;2.30;;;12.70;99.90;;;;;;5018046;28;20209;-83
2021/03/29 08:20:11;;;;;;;5.20;2.03;;;12.70;99.90;;;;;;5014395;28;20239;-83
2021/03/29 08:22:37;;;;;;;4.60;2.17;;;12.80;99.90;;;;;;5019706;28;20623;-82
2021/03/29 08:25:04;;;;;;;6.87;2.13;;;12.90;99.90;;;;;;5024919;28;20656;-82
2021/03/29 08:27:33;;;;;;;3.77;2.03;;;12.90;99.90;;;;;;5030841;28;20709;-82
2021/03/29 08:30:13;;;;;;;5.70;2.30;;;12.90;99.90;;;;;;5031431;28;20239;-82
2021/03/29 08:32:40;;;;;;;5.27;2.00;;;13.00;99.90;;;;;;5030894;28;20221;-81
2021/03/29 08:35:07;;;;;;;6.73;2.33;;;13.10;99.90;;;;;;5030377;28;20759;-81
2021/03/29 08:37:37;;;;;;;4.50;2.30;;;13.10;99.90;;;;;;5030934;28;20574;-82
2021/03/29 08:40:11;;;;;;;5.80;2.30;;;13.10;99.90;;;;;;5030899;28;20213;-82
2021/03/29 08:42:40;;;;;;;3.53;2.03;;;13.10;99.90;;;;;;5031023;28;20204;-82
2021/03/29 08:45:09;;;;;;;3.93;2.20;;;13.10;99.90;;;;;;5030974;28;20235;-82
2021/03/29 08:47:38;;;;;;;5.23;2.07;;;13.10;99.90;;;;;;5030304;28;20240;-82
2021/03/29 08:50:08;;;;;;;6.03;2.27;;;13.10;99.90;;;;;;5030661;28;20208;-81
2021/03/29 08:52:45;;;;;;;4.93;2.13;;;13.20;99.90;;;;;;5030955;28;20639;-83
2021/03/29 08:55:16;;;;;;;4.17;1.90;;;13.20;99.90;;;;;;5029229;28;20228;-82
2021/03/29 08:57:45;;;;;;;3.27;2.40;;;13.30;99.90;;;;;;5030114;28;20243;-82
2021/03/29 09:00:13;;;;;;;4.53;2.77;;;13.30;99.90;;;;;;5030749;28;20205;-81
2021/03/29 09:02:40;;;;;;;5.47;2.00;;;13.40;99.90;;;;;;5030300;28;20577;-82
2021/03/29 09:05:08;;;;;;;5.03;2.13;;;13.40;99.90;;;;;;5030043;28;20208;-81
2021/03/29 09:07:40;;;;;;;4.13;2.13;;;13.50;99.90;;;;;;5030335;28;20627;-81
2021/03/29 09:10:18;;;;;;;3.27;1.83;;;13.60;99.90;;;;;;5029842;28;20196;-82
2021/03/29 09:12:46;;;;;;;4.37;2.23;;;13.70;99.90;;;;;;5029755;28;20545;-81
2021/03/29 09:15:14;;;;;;;4.10;2.00;;;13.70;99.90;;;;;;5029602;28;20232;-82
2021/03/29 09:17:41;;;;;;;4.53;2.20;;;13.80;99.90;;;;;;5029223;28;20584;-82
2021/03/29 09:20:18;;;;;;;11.13;2.20;;;13.80;99.90;;;;;;5029520;28;20251;-81
2021/03/29 09:22:46;;;;;;;4.63;2.20;;;13.80;99.90;;;;;;5030008;28;20284;-81
2021/03/29 09:25:12;;;;;;;4.90;2.40;;;13.80;99.90;;;;;;5029757;28;20212;-83
2021/03/29 09:27:41;;;;;;;4.63;1.90;;;13.90;99.90;;;;;;5029717;28;20205;-82
2021/03/29 09:30:11;;;;;;;3.97;1.87;;;14.00;99.90;;;;;;5029945;28;20213;-82
2021/03/29 09:32:43;;;;;;;6.33;2.07;;;14.00;99.90;;;;;;5029643;28;20193;-82
2021/03/29 09:35:11;;;;;;;4.60;1.70;;;14.10;99.90;;;;;;5020541;28;20230;-82
2021/03/29 09:37:46;;;;;;;5.87;2.10;;;14.20;99.90;;;;;;4990268;28;20218;-82
2021/03/29 09:40:13;;;;;;;2.70;1.57;;;14.30;99.90;;;;;;4990438;28;20543;-81
2021/03/29 09:42:41;;;;;;;3.90;2.10;;;14.40;99.90;;;;;;4990067;28;20214;-82
2021/03/29 09:45:11;;;;;;;6.17;2.07;;;14.40;99.90;;;;;;4990153;28;20214;-82
2021/03/29 09:47:37;;;;;;;3.17;2.10;;;14.40;99.90;;;;;;4990096;28;20366;-76
2021/03/29 09:50:06;;;;;;;6.43;2.00;;;14.50;99.90;;;;;;4997480;28;20208;-73
2021/03/29 09:52:37;;;;;;;3.70;2.07;;;14.70;99.90;;;;;;5001315;28;20284;-82
2021/03/29 09:55:05;;;;;;;5.83;1.90;;;14.70;99.90;;;;;;5009811;28;20252;-84
2021/03/29 09:57:38;;;;;;;9.80;2.20;;;14.70;99.90;;;;;;5009470;28;20695;-83
2021/03/29 10:00:20;;;;;;;3.90;1.57;;;14.80;99.90;;;;;;5010117;28;20223;-82
2021/03/29 10:02:47;;;;;;;4.20;2.00;;;14.80;99.90;;;;;;5006716;28;20217;-83
2021/03/29 10:05:15;;;;;;;7.00;2.13;;;14.80;99.90;;;;;;5009459;28;20209;-82
2021/03/29 10:07:52;;;;;;;5.53;2.20;;;14.80;99.90;;;;;;5009410;28;20348;-82
2021/03/29 10:10:27;;;;;;;5.80;2.10;;;14.80;99.90;;;;;;5009686;28;20213;-82
2021/03/29 10:13:08;;;;;;;6.03;1.83;;;14.80;99.90;;;;;;5009659;28;20260;-82
2021/03/29 10:15:36;;;;;;;5.23;1.90;;;14.90;99.90;;;;;;5009840;28;20251;-82
2021/03/29 10:18:07;;;;;;;5.33;2.13;;;14.80;99.90;;;;;;5009718;28;20213;-82
2021/03/29 10:20:35;;;;;;;7.23;2.20;;;14.80;99.90;;;;;;5009177;28;20267;-83
2021/03/29 10:23:23;;;;;;;3.83;1.83;;;14.70;99.90;;;;;;5009587;28;20206;-83
2021/03/29 10:26:12;;;;;;;4.33;1.60;;;14.60;99.90;;;;;;5009570;28;20193;-81
2021/03/29 10:28:38;;;;;;;2.77;1.77;;;14.60;99.90;;;;;;5008983;28;20215;-82
2021/03/29 10:31:05;;;;;;;4.07;1.87;;;14.60;99.90;;;;;;5008788;28;20210;-83
2021/03/29 10:33:32;;;;;;;5.57;2.10;;;14.60;99.90;;;;;;5008851;28;20209;-82
2021/03/29 10:35:58;;;;;;;5.23;2.20;;;14.60;99.90;;;;;;5014211;28;20308;-82
2021/03/29 10:38:24;;;;;;;4.37;1.60;;;14.60;99.90;;;;;;5016376;28;20741;-81
2021/03/29 10:40:50;;;;;;;4.97;2.00;;;14.60;99.90;;;;;;5017791;28;20789;-82
2021/03/29 10:43:16;;;;;;;3.30;1.90;;;14.50;99.90;;;;;;5016143;28;20201;-82
2021/03/29 10:45:42;;;;;;;4.10;1.80;;;14.60;99.90;;;;;;5002619;28;20253;-77
2021/03/29 10:48:09;;;;;;;5.00;2.07;;;14.60;99.90;;;;;;5000718;28;20237;-78
2021/03/29 10:50:35;;;;;;;4.40;2.07;;;14.70;99.90;;;;;;4996493;28;20197;-83
2021/03/29 10:53:02;;;;;;;5.80;2.00;;;14.70;99.90;;;;;;5005578;28;20241;-82
2021/03/29 10:55:28;;;;;;;4.93;1.90;;;14.80;99.90;;;;;;5016545;28;20217;-83
2021/03/29 10:57:54;;;;;;;4.40;1.80;;;14.80;99.90;;;;;;5017353;28;20202;-82
2021/03/29 11:00:22;;;;;;;3.80;1.57;;;14.90;99.90;;;;;;5018201;28;20240;-82
2021/03/29 11:02:48;;;;;;;7.03;2.27;;;14.90;99.90;;;;;;5018698;28;20209;-82
2021/03/29 11:05:15;;;;;;;4.53;1.73;;;15.00;99.90;;;;;;5016397;28;20200;-82
2021/03/29 11:07:41;;;;;;;2.77;1.43;;;15.00;99.90;;;;;;5018919;28;20654;-83
2021/03/29 11:10:08;;;;;;;5.40;1.77;;;15.00;99.90;;;;;;5016252;28;20205;-82
2021/03/29 11:12:34;;;;;;;6.13;2.00;;;15.00;99.90;;;;;;5019588;28;20295;-83
2021/03/29 11:15:00;;;;;;;3.50;1.70;;;15.10;99.90;;;;;;5020462;28;20224;-82
2021/03/29 11:17:28;;;;;;;4.70;1.70;;;15.10;99.90;;;;;;5018040;28;20621;-82
2021/03/29 11:19:54;;;;;;;4.40;1.90;;;15.20;99.90;;;;;;5015911;28;20232;-83
2021/03/29 11:22:22;;;;;;;7.97;2.37;;;15.10;99.90;;;;;;5020989;28;20209;-82
2021/03/29 11:24:48;;;;;;;4.17;1.90;;;15.10;99.90;;;;;;5020475;28;20704;-82
2021/03/29 11:27:14;;;;;;;4.93;2.00;;;15.10;99.90;;;;;;5023430;28;20209;-83
2021/03/29 11:29:40;;;;;;;3.87;1.70;;;15.10;99.90;;;;;;5023254;28;20750;-82
2021/03/29 11:32:07;;;;;;;4.93;2.20;;;15.20;99.90;;;;;;5020435;28;20197;-82
2021/03/29 11:34:33;;;;;;;5.93;1.70;;;15.10;99.90;;;;;;5025020;28;20197;-82
2021/03/29 11:36:59;;;;;;;4.30;2.10;;;15.20;99.90;;;;;;5019627;28;20205;-83
2021/03/29 11:39:26;;;;;;;3.73;1.80;;;15.30;99.90;;;;;;5019623;28;20209;-83
2021/03/29 11:41:52;;;;;;;4.37;1.93;;;15.50;99.90;;;;;;5014954;28;20247;-82
2021/03/29 11:44:18;;;;;;;5.07;2.03;;;15.90;99.90;;;;;;5021381;28;20255;-83
2021/03/29 11:46:44;;;;;;;5.50;2.03;;;15.70;99.90;;;;;;5008665;28;20735;-87
2021/03/29 11:49:11;;;;;;;6.20;2.40;;;15.70;99.90;;;;;;5007492;28;20213;-85
2021/03/29 11:51:38;;;;;;;7.17;2.20;;;15.70;99.90;;;;;;5010071;28;20204;-82
2021/03/29 11:54:05;;;;;;;2.37;1.87;;;15.80;99.90;;;;;;5016327;28;20260;-82
2021/03/29 11:56:35;;;;;;;3.50;2.03;;;15.90;99.90;;;;;;5014838;28;20226;-81
2021/03/29 11:59:01;;;;;;;5.57;2.20;;;16.00;99.90;;;;;;5009285;28;20608;-81
2021/03/29 12:01:36;;;;;;;4.10;2.07;;;16.20;99.90;;;;;;5014983;28;20206;-81
2021/03/29 12:04:07;;;;;;;8.27;2.50;;;16.40;99.90;;;;;;5015797;28;20190;-82
2021/03/29 12:06:39;;;;;;;3.67;2.00;;;16.60;98.80;;;;;;5007998;28;20220;-81
2021/03/29 12:09:16;;;;;;;4.47;2.60;;;16.70;98.90;;;;;;5013008;28;20197;-84
2021/03/29 12:11:52;;;;;;;3.60;2.40;;;16.80;98.70;;;;;;5022668;28;20672;-82
2021/03/29 12:14:19;;;;;;;3.70;2.40;;;16.90;98.40;;;;;;5009629;28;20570;-81
2021/03/29 12:16:47;;;;;;;4.40;2.20;;;17.00;98.30;;;;;;5016826;28;20294;-83
2021/03/29 12:19:16;;;;;;;7.50;3.03;;;17.00;98.30;;;;;;5011335;28;20229;-82
2021/03/29 12:21:47;;;;;;;5.60;2.90;;;17.10;98.30;;;;;;5025155;28;20208;-81
2021/03/29 12:24:16;;;;;;;6.97;2.47;;;17.00;98.70;;;;;;5030988;28;20255;-81
2021/03/29 12:26:46;;;;;;;7.83;2.77;;;17.10;98.50;;;;;;5030876;28;20213;-81
2021/03/29 12:29:14;;;;;;;5.73;2.60;;;17.10;99.10;;;;;;5030937;28;20208;-81
2021/03/29 12:31:42;;;;;;;9.40;3.27;;;17.20;98.80;;;;;;5031355;28;20213;-81
2021/03/29 12:34:09;;;;;;;7.90;2.97;;;17.30;98.60;;;;;;5031142;28;20212;-81
2021/03/29 12:36:42;;;;;;;7.20;3.23;;;17.30;98.30;;;;;;5031192;28;20240;-81
2021/03/29 12:39:15;;;;;;;5.87;3.00;;;17.60;97.90;;;;;;5030991;28;20201;-80
2021/03/29 12:41:45;;;;;;;7.30;2.70;;;17.80;98.50;;;;;;5030982;28;20213;-81
2021/03/29 12:44:14;;;;;;;5.13;3.00;;;17.90;97.60;;;;;;5030867;28;20205;-80
2021/03/29 12:46:41;;;;;;;5.03;2.60;;;17.80;97.70;;;;;;5031009;28;20232;-80
2021/03/29 12:49:11;;;;;;;5.10;3.20;;;17.70;98.00;;;;;;5030900;28;20208;-80
2021/03/29 12:51:37;;;;;;;6.40;2.77;;;17.70;97.80;;;;;;5030334;28;20343;-81
2021/03/29 12:54:11;;;;;;;8.20;3.13;;;17.90;97.90;;;;;;5030420;28;20679;-80
2021/03/29 12:56:37;;;;;;;4.57;3.00;;;18.20;97.90;;;;;;5030443;28;20221;-80
2021/03/29 12:59:05;;;;;;;8.13;3.13;;;18.40;97.80;;;;;;5030872;28;20205;-80